sensor_id;sensor_type;location;lat;lon;timestamp;P1;durP1;ratioP1;P2;durP2;ratioP2
55268;SDS011;41131;42.990;21.954;2022-12-20T00:01:19;166.30;;;98.28;;
55268;SDS011;41131;42.990;21.954;2022-12-20T00:03:48;167.65;;;98.80;;
55268;SDS011;41131;42.990;21.954;2022-12-20T00:06:15;156.98;;;88.88;;
55268;SDS011;41131;42.990;21.954;2022-12-20T00:08:42;165.98;;;90.43;;
55268;SDS011;41131;42.990;21.954;2022-12-20T00:11:08;149.77;;;90.18;;
55268;SDS011;41131;42.990;21.954;2022-12-20T00:13:34;148.75;;;84.20;;
55268;SDS011;41131;42.990;21.954;2022-12-20T00:16:07;143.43;;;85.05;;
55268;SDS011;41131;42.990;21.954;2022-12-20T00:18:38;136.68;;;84.43;;
55268;SDS011;41131;42.990;21.954;2022-12-20T00:21:06;145.73;;;84.93;;
55268;SDS011;41131;42.990;21.954;2022-12-20T00:23:34;137.75;;;85.35;;
55268;SDS011;41131;42.990;21.954;2022-12-20T00:26:01;134.55;;;79.72;;
55268;SDS011;41131;42.990;21.954;2022-12-20T00:28:37;125.40;;;70.93;;
55268;SDS011;41131;42.990;21.954;2022-12-20T00:31:04;133.55;;;75.93;;
55268;SDS011;41131;42.990;21.954;2022-12-20T00:33:31;133.40;;;79.20;;
55268;SDS011;41131;42.990;21.954;2022-12-20T00:35:57;133.80;;;80.85;;
55268;SDS011;41131;42.990;21.954;2022-12-20T00:38:24;131.35;;;78.80;;
55268;SDS011;41131;42.990;21.954;2022-12-20T00:41:06;142.45;;;84.28;;
55268;SDS011;41131;42.990;21.954;2022-12-20T00:43:36;132.07;;;80.03;;
55268;SDS011;41131;42.990;21.954;2022-12-20T00:46:03;142.70;;;83.50;;
55268;SDS011;41131;42.990;21.954;2022-12-20T00:48:30;131.05;;;79.40;;
55268;SDS011;41131;42.990;21.954;2022-12-20T00:51:03;135.98;;;79.57;;
55268;SDS011;41131;42.990;21.954;2022-12-20T00:53:37;136.02;;;80.68;;
55268;SDS011;41131;42.990;21.954;2022-12-20T00:56:03;138.38;;;83.93;;
55268;SDS011;41131;42.990;21.954;2022-12-20T00:58:31;140.73;;;83.15;;
55268;SDS011;41131;42.990;21.954;2022-12-20T01:00:58;151.73;;;86.32;;
55268;SDS011;41131;42.990;21.954;2022-12-20T01:03:24;159.57;;;91.40;;
55268;SDS011;41131;42.990;21.954;2022-12-20T01:08:17;170.95;;;99.15;;
55268;SDS011;41131;42.990;21.954;2022-12-20T01:10:43;177.98;;;108.10;;
55268;SDS011;41131;42.990;21.954;2022-12-20T01:13:10;199.45;;;106.75;;
55268;SDS011;41131;42.990;21.954;2022-12-20T01:15:36;218.07;;;115.68;;
55268;SDS011;41131;42.990;21.954;2022-12-20T01:18:01;166.25;;;99.90;;
55268;SDS011;41131;42.990;21.954;2022-12-20T01:20:27;138.65;;;83.55;;
55268;SDS011;41131;42.990;21.954;2022-12-20T01:22:53;101.40;;;62.00;;
55268;SDS011;41131;42.990;21.954;2022-12-20T01:25:19;110.47;;;64.60;;
55268;SDS011;41131;42.990;21.954;2022-12-20T01:27:45;107.28;;;62.80;;
55268;SDS011;41131;42.990;21.954;2022-12-20T01:30:11;107.13;;;61.53;;
55268;SDS011;41131;42.990;21.954;2022-12-20T01:32:36;114.35;;;64.65;;
55268;SDS011;41131;42.990;21.954;2022-12-20T01:35:02;119.25;;;69.72;;
55268;SDS011;41131;42.990;21.954;2022-12-20T01:37:28;154.15;;;82.68;;
55268;SDS011;41131;42.990;21.954;2022-12-20T01:39:55;158.25;;;84.43;;
55268;SDS011;41131;42.990;21.954;2022-12-20T01:42:21;145.10;;;83.45;;
55268;SDS011;41131;42.990;21.954;2022-12-20T01:44:51;145.55;;;80.13;;
55268;SDS011;41131;42.990;21.954;2022-12-20T01:47:21;141.00;;;82.03;;
55268;SDS011;41131;42.990;21.954;2022-12-20T01:49:49;157.25;;;87.25;;
55268;SDS011;41131;42.990;21.954;2022-12-20T01:52:18;155.82;;;89.88;;
55268;SDS011;41131;42.990;21.954;2022-12-20T01:54:52;145.55;;;85.28;;
55268;SDS011;41131;42.990;21.954;2022-12-20T01:57:33;139.77;;;84.53;;
55268;SDS011;41131;42.990;21.954;2022-12-20T02:00:04;147.13;;;84.70;;
55268;SDS011;41131;42.990;21.954;2022-12-20T02:02:32;183.15;;;102.28;;
55268;SDS011;41131;42.990;21.954;2022-12-20T02:04:58;162.55;;;90.15;;
55268;SDS011;41131;42.990;21.954;2022-12-20T02:07:25;210.25;;;120.55;;
55268;SDS011;41131;42.990;21.954;2022-12-20T02:09:53;274.73;;;155.50;;
55268;SDS011;41131;42.990;21.954;2022-12-20T02:12:24;275.73;;;158.65;;
55268;SDS011;41131;42.990;21.954;2022-12-20T02:15:03;264.92;;;158.30;;
55268;SDS011;41131;42.990;21.954;2022-12-20T02:26:24;227.93;;;134.35;;
55268;SDS011;41131;42.990;21.954;2022-12-20T02:32:03;178.30;;;107.60;;
55268;SDS011;41131;42.990;21.954;2022-12-20T02:34:44;145.57;;;89.43;;
55268;SDS011;41131;42.990;21.954;2022-12-20T02:37:10;155.43;;;97.65;;
55268;SDS011;41131;42.990;21.954;2022-12-20T02:39:38;158.55;;;97.60;;
55268;SDS011;41131;42.990;21.954;2022-12-20T02:42:08;184.27;;;105.28;;
55268;SDS011;41131;42.990;21.954;2022-12-20T02:44:49;226.50;;;124.80;;
55268;SDS011;41131;42.990;21.954;2022-12-20T02:47:50;170.00;;;97.10;;
55268;SDS011;41131;42.990;21.954;2022-12-20T02:50:21;157.57;;;89.82;;
55268;SDS011;41131;42.990;21.954;2022-12-20T02:52:50;152.90;;;86.45;;
55268;SDS011;41131;42.990;21.954;2022-12-20T02:55:17;165.18;;;93.18;;
55268;SDS011;41131;42.990;21.954;2022-12-20T03:00:16;121.68;;;70.38;;
55268;SDS011;41131;42.990;21.954;2022-12-20T03:02:44;125.88;;;75.22;;
55268;SDS011;41131;42.990;21.954;2022-12-20T03:05:31;154.75;;;80.75;;
55268;SDS011;41131;42.990;21.954;2022-12-20T03:08:00;123.10;;;68.22;;
55268;SDS011;41131;42.990;21.954;2022-12-20T03:10:26;129.13;;;68.13;;
55268;SDS011;41131;42.990;21.954;2022-12-20T03:12:52;121.30;;;68.20;;
55268;SDS011;41131;42.990;21.954;2022-12-20T03:15:18;113.88;;;63.92;;
55268;SDS011;41131;42.990;21.954;2022-12-20T03:17:44;97.50;;;56.53;;
55268;SDS011;41131;42.990;21.954;2022-12-20T03:20:10;96.50;;;55.70;;
55268;SDS011;41131;42.990;21.954;2022-12-20T03:22:36;121.20;;;59.70;;
55268;SDS011;41131;42.990;21.954;2022-12-20T03:25:02;108.78;;;61.85;;
55268;SDS011;41131;42.990;21.954;2022-12-20T03:27:28;107.75;;;62.30;;
55268;SDS011;41131;42.990;21.954;2022-12-20T03:29:54;128.25;;;72.07;;
55268;SDS011;41131;42.990;21.954;2022-12-20T03:32:20;168.30;;;92.95;;
55268;SDS011;41131;42.990;21.954;2022-12-20T03:34:46;133.07;;;78.55;;
55268;SDS011;41131;42.990;21.954;2022-12-20T03:37:12;114.93;;;68.72;;
55268;SDS011;41131;42.990;21.954;2022-12-20T03:39:38;107.18;;;59.97;;
55268;SDS011;41131;42.990;21.954;2022-12-20T03:42:03;86.63;;;52.30;;
55268;SDS011;41131;42.990;21.954;2022-12-20T03:44:29;76.70;;;47.45;;
55268;SDS011;41131;42.990;21.954;2022-12-20T03:46:55;91.80;;;50.60;;
55268;SDS011;41131;42.990;21.954;2022-12-20T03:49:20;98.50;;;55.08;;
55268;SDS011;41131;42.990;21.954;2022-12-20T03:51:46;95.20;;;55.30;;
55268;SDS011;41131;42.990;21.954;2022-12-20T03:54:12;96.63;;;55.78;;
55268;SDS011;41131;42.990;21.954;2022-12-20T03:56:38;92.60;;;53.70;;
55268;SDS011;41131;42.990;21.954;2022-12-20T03:59:03;96.32;;;53.95;;
55268;SDS011;41131;42.990;21.954;2022-12-20T04:01:29;92.82;;;54.05;;
55268;SDS011;41131;42.990;21.954;2022-12-20T04:03:55;92.30;;;54.88;;
55268;SDS011;41131;42.990;21.954;2022-12-20T04:06:21;92.53;;;52.83;;
55268;SDS011;41131;42.990;21.954;2022-12-20T04:08:47;88.20;;;53.00;;
55268;SDS011;41131;42.990;21.954;2022-12-20T04:11:14;92.15;;;55.60;;
55268;SDS011;41131;42.990;21.954;2022-12-20T04:13:40;94.28;;;53.10;;
55268;SDS011;41131;42.990;21.954;2022-12-20T04:16:08;96.43;;;55.25;;
55268;SDS011;41131;42.990;21.954;2022-12-20T04:18:35;85.65;;;49.47;;
55268;SDS011;41131;42.990;21.954;2022-12-20T04:21:00;97.90;;;52.08;;
55268;SDS011;41131;42.990;21.954;2022-12-20T04:23:27;99.10;;;51.70;;
55268;SDS011;41131;42.990;21.954;2022-12-20T04:25:52;86.47;;;48.28;;
55268;SDS011;41131;42.990;21.954;2022-12-20T04:28:18;80.43;;;46.58;;
55268;SDS011;41131;42.990;21.954;2022-12-20T04:30:44;84.13;;;47.88;;
55268;SDS011;41131;42.990;21.954;2022-12-20T04:33:10;83.22;;;46.50;;
55268;SDS011;41131;42.990;21.954;2022-12-20T04:35:36;84.70;;;47.88;;
55268;SDS011;41131;42.990;21.954;2022-12-20T04:38:02;77.75;;;44.22;;
55268;SDS011;41131;42.990;21.954;2022-12-20T04:40:28;91.90;;;48.97;;
55268;SDS011;41131;42.990;21.954;2022-12-20T04:42:54;112.15;;;59.30;;
55268;SDS011;41131;42.990;21.954;2022-12-20T04:45:20;102.03;;;57.35;;
55268;SDS011;41131;42.990;21.954;2022-12-20T04:47:45;95.15;;;52.85;;
55268;SDS011;41131;42.990;21.954;2022-12-20T04:50:11;92.43;;;52.88;;
55268;SDS011;41131;42.990;21.954;2022-12-20T04:52:37;86.57;;;50.70;;
55268;SDS011;41131;42.990;21.954;2022-12-20T04:55:21;91.72;;;49.80;;
55268;SDS011;41131;42.990;21.954;2022-12-20T04:57:47;82.80;;;48.00;;
55268;SDS011;41131;42.990;21.954;2022-12-20T05:00:13;81.80;;;48.40;;
55268;SDS011;41131;42.990;21.954;2022-12-20T05:02:39;86.00;;;48.47;;
55268;SDS011;41131;42.990;21.954;2022-12-20T05:05:06;82.90;;;50.28;;
55268;SDS011;41131;42.990;21.954;2022-12-20T05:07:32;89.75;;;50.72;;
55268;SDS011;41131;42.990;21.954;2022-12-20T05:09:59;101.50;;;56.63;;
55268;SDS011;41131;42.990;21.954;2022-12-20T05:12:24;102.35;;;60.35;;
55268;SDS011;41131;42.990;21.954;2022-12-20T05:14:50;96.88;;;58.67;;
55268;SDS011;41131;42.990;21.954;2022-12-20T05:17:16;96.20;;;55.05;;
55268;SDS011;41131;42.990;21.954;2022-12-20T05:19:41;87.13;;;53.65;;
55268;SDS011;41131;42.990;21.954;2022-12-20T05:22:08;95.88;;;57.40;;
55268;SDS011;41131;42.990;21.954;2022-12-20T05:24:53;74.85;;;46.35;;
55268;SDS011;41131;42.990;21.954;2022-12-20T05:27:38;90.22;;;48.80;;
55268;SDS011;41131;42.990;21.954;2022-12-20T05:30:04;91.95;;;50.13;;
55268;SDS011;41131;42.990;21.954;2022-12-20T05:32:30;101.93;;;65.53;;
55268;SDS011;41131;42.990;21.954;2022-12-20T05:34:56;99.10;;;63.92;;
55268;SDS011;41131;42.990;21.954;2022-12-20T05:37:22;101.82;;;59.67;;
55268;SDS011;41131;42.990;21.954;2022-12-20T05:39:47;107.30;;;65.40;;
55268;SDS011;41131;42.990;21.954;2022-12-20T05:42:14;101.82;;;60.08;;
55268;SDS011;41131;42.990;21.954;2022-12-20T05:44:40;104.10;;;60.95;;
55268;SDS011;41131;42.990;21.954;2022-12-20T05:47:05;150.05;;;89.10;;
55268;SDS011;41131;42.990;21.954;2022-12-20T05:49:32;117.75;;;72.60;;
55268;SDS011;41131;42.990;21.954;2022-12-20T05:51:58;108.53;;;64.78;;
55268;SDS011;41131;42.990;21.954;2022-12-20T05:54:25;117.10;;;67.75;;
55268;SDS011;41131;42.990;21.954;2022-12-20T05:56:50;114.57;;;64.78;;
55268;SDS011;41131;42.990;21.954;2022-12-20T05:59:16;133.18;;;77.45;;
55268;SDS011;41131;42.990;21.954;2022-12-20T06:01:42;141.65;;;81.10;;
55268;SDS011;41131;42.990;21.954;2022-12-20T06:04:08;119.10;;;67.88;;
55268;SDS011;41131;42.990;21.954;2022-12-20T06:06:33;118.28;;;68.10;;
55268;SDS011;41131;42.990;21.954;2022-12-20T06:08:59;125.65;;;66.75;;
55268;SDS011;41131;42.990;21.954;2022-12-20T06:11:25;111.03;;;67.82;;
55268;SDS011;41131;42.990;21.954;2022-12-20T06:13:51;94.38;;;55.20;;
55268;SDS011;41131;42.990;21.954;2022-12-20T06:16:16;109.93;;;58.35;;
55268;SDS011;41131;42.990;21.954;2022-12-20T06:18:44;127.85;;;76.47;;
55268;SDS011;41131;42.990;21.954;2022-12-20T06:21:10;137.90;;;82.78;;
55268;SDS011;41131;42.990;21.954;2022-12-20T06:23:37;134.30;;;76.93;;
55268;SDS011;41131;42.990;21.954;2022-12-20T06:26:02;122.97;;;72.75;;
55268;SDS011;41131;42.990;21.954;2022-12-20T06:28:29;142.85;;;77.55;;
55268;SDS011;41131;42.990;21.954;2022-12-20T06:30:55;131.30;;;72.95;;
55268;SDS011;41131;42.990;21.954;2022-12-20T06:33:22;143.80;;;74.45;;
55268;SDS011;41131;42.990;21.954;2022-12-20T06:35:49;150.60;;;82.30;;
55268;SDS011;41131;42.990;21.954;2022-12-20T06:38:15;162.05;;;85.97;;
55268;SDS011;41131;42.990;21.954;2022-12-20T06:40:42;137.23;;;77.90;;
55268;SDS011;41131;42.990;21.954;2022-12-20T06:43:07;140.23;;;80.45;;
55268;SDS011;41131;42.990;21.954;2022-12-20T06:45:33;233.88;;;118.55;;
55268;SDS011;41131;42.990;21.954;2022-12-20T06:48:00;191.63;;;102.55;;
55268;SDS011;41131;42.990;21.954;2022-12-20T06:50:26;156.35;;;89.07;;
55268;SDS011;41131;42.990;21.954;2022-12-20T06:52:51;220.57;;;117.88;;
55268;SDS011;41131;42.990;21.954;2022-12-20T06:55:20;174.40;;;96.40;;
55268;SDS011;41131;42.990;21.954;2022-12-20T06:57:47;169.25;;;92.97;;
55268;SDS011;41131;42.990;21.954;2022-12-20T07:00:12;153.25;;;92.78;;
55268;SDS011;41131;42.990;21.954;2022-12-20T07:02:38;154.48;;;93.07;;
55268;SDS011;41131;42.990;21.954;2022-12-20T07:05:04;178.30;;;104.63;;
55268;SDS011;41131;42.990;21.954;2022-12-20T07:07:30;180.82;;;105.13;;
55268;SDS011;41131;42.990;21.954;2022-12-20T07:09:56;171.48;;;98.78;;
55268;SDS011;41131;42.990;21.954;2022-12-20T07:12:23;166.10;;;102.85;;
55268;SDS011;41131;42.990;21.954;2022-12-20T07:14:48;210.55;;;116.75;;
55268;SDS011;41131;42.990;21.954;2022-12-20T07:17:14;167.65;;;99.35;;
55268;SDS011;41131;42.990;21.954;2022-12-20T07:19:40;189.70;;;113.30;;
55268;SDS011;41131;42.990;21.954;2022-12-20T07:22:06;212.75;;;127.78;;
55268;SDS011;41131;42.990;21.954;2022-12-20T07:24:32;251.57;;;152.90;;
55268;SDS011;41131;42.990;21.954;2022-12-20T07:26:58;265.63;;;150.10;;
55268;SDS011;41131;42.990;21.954;2022-12-20T07:29:24;233.48;;;144.70;;
55268;SDS011;41131;42.990;21.954;2022-12-20T07:31:50;230.63;;;144.75;;
55268;SDS011;41131;42.990;21.954;2022-12-20T07:34:16;236.60;;;149.48;;
55268;SDS011;41131;42.990;21.954;2022-12-20T07:36:43;252.98;;;156.48;;
55268;SDS011;41131;42.990;21.954;2022-12-20T07:39:09;225.43;;;143.52;;
55268;SDS011;41131;42.990;21.954;2022-12-20T07:41:34;251.63;;;153.02;;
55268;SDS011;41131;42.990;21.954;2022-12-20T07:44:00;287.35;;;180.77;;
55268;SDS011;41131;42.990;21.954;2022-12-20T07:46:27;313.75;;;194.25;;
55268;SDS011;41131;42.990;21.954;2022-12-20T07:48:53;224.93;;;144.98;;
55268;SDS011;41131;42.990;21.954;2022-12-20T07:51:22;188.25;;;119.88;;
55268;SDS011;41131;42.990;21.954;2022-12-20T07:53:51;209.05;;;135.15;;
55268;SDS011;41131;42.990;21.954;2022-12-20T07:56:32;175.52;;;112.97;;
55268;SDS011;41131;42.990;21.954;2022-12-20T07:59:00;172.20;;;109.07;;
55268;SDS011;41131;42.990;21.954;2022-12-20T08:01:27;163.43;;;103.63;;
55268;SDS011;41131;42.990;21.954;2022-12-20T08:03:57;186.48;;;122.78;;
55268;SDS011;41131;42.990;21.954;2022-12-20T08:06:29;174.82;;;115.63;;
55268;SDS011;41131;42.990;21.954;2022-12-20T08:08:57;187.73;;;125.97;;
55268;SDS011;41131;42.990;21.954;2022-12-20T08:11:26;192.48;;;121.50;;
55268;SDS011;41131;42.990;21.954;2022-12-20T08:13:54;171.88;;;112.80;;
55268;SDS011;41131;42.990;21.954;2022-12-20T08:16:20;149.02;;;99.30;;
55268;SDS011;41131;42.990;21.954;2022-12-20T08:18:46;169.90;;;116.90;;
55268;SDS011;41131;42.990;21.954;2022-12-20T08:21:12;167.13;;;114.45;;
55268;SDS011;41131;42.990;21.954;2022-12-20T08:23:38;151.45;;;94.22;;
55268;SDS011;41131;42.990;21.954;2022-12-20T08:26:05;147.10;;;95.55;;
55268;SDS011;41131;42.990;21.954;2022-12-20T08:28:31;164.50;;;111.25;;
55268;SDS011;41131;42.990;21.954;2022-12-20T08:31:03;184.35;;;127.40;;
55268;SDS011;41131;42.990;21.954;2022-12-20T08:33:31;183.70;;;120.90;;
55268;SDS011;41131;42.990;21.954;2022-12-20T08:35:59;191.45;;;135.30;;
55268;SDS011;41131;42.990;21.954;2022-12-20T08:38:27;202.40;;;138.57;;
55268;SDS011;41131;42.990;21.954;2022-12-20T08:40:55;210.25;;;140.20;;
55268;SDS011;41131;42.990;21.954;2022-12-20T08:43:26;209.65;;;138.77;;
55268;SDS011;41131;42.990;21.954;2022-12-20T08:45:52;208.85;;;140.75;;
55268;SDS011;41131;42.990;21.954;2022-12-20T08:48:19;228.70;;;151.82;;
55268;SDS011;41131;42.990;21.954;2022-12-20T08:50:46;221.60;;;150.73;;
55268;SDS011;41131;42.990;21.954;2022-12-20T08:53:12;237.05;;;149.90;;
55268;SDS011;41131;42.990;21.954;2022-12-20T08:55:38;224.70;;;153.85;;
55268;SDS011;41131;42.990;21.954;2022-12-20T08:58:04;225.30;;;152.68;;
55268;SDS011;41131;42.990;21.954;2022-12-20T09:00:30;251.88;;;174.52;;
55268;SDS011;41131;42.990;21.954;2022-12-20T09:02:55;234.15;;;157.18;;
55268;SDS011;41131;42.990;21.954;2022-12-20T09:05:21;226.48;;;157.68;;
55268;SDS011;41131;42.990;21.954;2022-12-20T09:07:47;223.00;;;147.10;;
55268;SDS011;41131;42.990;21.954;2022-12-20T09:10:12;211.85;;;142.77;;
55268;SDS011;41131;42.990;21.954;2022-12-20T09:12:38;205.02;;;137.90;;
55268;SDS011;41131;42.990;21.954;2022-12-20T09:15:04;192.23;;;131.77;;
55268;SDS011;41131;42.990;21.954;2022-12-20T09:17:30;201.30;;;137.20;;
55268;SDS011;41131;42.990;21.954;2022-12-20T09:19:56;197.13;;;134.73;;
55268;SDS011;41131;42.990;21.954;2022-12-20T09:22:22;186.70;;;126.70;;
55268;SDS011;41131;42.990;21.954;2022-12-20T09:24:47;197.10;;;129.23;;
55268;SDS011;41131;42.990;21.954;2022-12-20T09:27:13;196.20;;;130.55;;
55268;SDS011;41131;42.990;21.954;2022-12-20T09:29:39;169.63;;;112.63;;
55268;SDS011;41131;42.990;21.954;2022-12-20T09:32:05;180.50;;;116.07;;
55268;SDS011;41131;42.990;21.954;2022-12-20T09:34:31;180.48;;;124.30;;
55268;SDS011;41131;42.990;21.954;2022-12-20T09:36:56;188.02;;;130.20;;
55268;SDS011;41131;42.990;21.954;2022-12-20T09:39:22;585.40;;;160.73;;
55268;SDS011;41131;42.990;21.954;2022-12-20T09:41:48;299.52;;;133.45;;
55268;SDS011;41131;42.990;21.954;2022-12-20T09:47:00;180.82;;;123.75;;
55268;SDS011;41131;42.990;21.954;2022-12-20T09:49:30;166.60;;;117.35;;
55268;SDS011;41131;42.990;21.954;2022-12-20T09:52:06;204.65;;;133.90;;
55268;SDS011;41131;42.990;21.954;2022-12-20T10:00:49;202.18;;;134.85;;
55268;SDS011;41131;42.990;21.954;2022-12-20T10:03:18;201.40;;;139.65;;
55268;SDS011;41131;42.990;21.954;2022-12-20T10:05:57;203.15;;;137.73;;
55268;SDS011;41131;42.990;21.954;2022-12-20T10:08:35;181.38;;;126.50;;
55268;SDS011;41131;42.990;21.954;2022-12-20T10:13:35;192.90;;;127.70;;
55268;SDS011;41131;42.990;21.954;2022-12-20T10:24:29;171.13;;;110.03;;
55268;SDS011;41131;42.990;21.954;2022-12-20T10:26:57;170.50;;;111.00;;
55268;SDS011;41131;42.990;21.954;2022-12-20T10:32:17;160.15;;;103.60;;
55268;SDS011;41131;42.990;21.954;2022-12-20T10:37:37;138.98;;;90.00;;
55268;SDS011;41131;42.990;21.954;2022-12-20T10:40:03;128.50;;;84.63;;
55268;SDS011;41131;42.990;21.954;2022-12-20T10:42:37;131.55;;;86.53;;
55268;SDS011;41131;42.990;21.954;2022-12-20T10:45:53;116.45;;;78.40;;
55268;SDS011;41131;42.990;21.954;2022-12-20T10:47:56;120.45;;;78.90;;
55268;SDS011;41131;42.990;21.954;2022-12-20T10:50:24;140.55;;;82.72;;
55268;SDS011;41131;42.990;21.954;2022-12-20T10:55:37;142.02;;;90.97;;
55268;SDS011;41131;42.990;21.954;2022-12-20T11:01:11;142.88;;;94.07;;
55268;SDS011;41131;42.990;21.954;2022-12-20T11:13:24;150.30;;;91.88;;
55268;SDS011;41131;42.990;21.954;2022-12-20T11:15:51;138.23;;;88.88;;
55268;SDS011;41131;42.990;21.954;2022-12-20T11:20:59;151.00;;;96.03;;
55268;SDS011;41131;42.990;21.954;2022-12-20T11:23:40;152.07;;;98.32;;
55268;SDS011;41131;42.990;21.954;2022-12-20T11:29:24;151.73;;;95.72;;
55268;SDS011;41131;42.990;21.954;2022-12-20T11:35:06;133.57;;;93.72;;
55268;SDS011;41131;42.990;21.954;2022-12-20T11:37:45;124.00;;;81.13;;
55268;SDS011;41131;42.990;21.954;2022-12-20T11:52:09;119.82;;;80.20;;
55268;SDS011;41131;42.990;21.954;2022-12-20T11:57:56;139.00;;;92.70;;
55268;SDS011;41131;42.990;21.954;2022-12-20T12:00:29;136.60;;;88.47;;
55268;SDS011;41131;42.990;21.954;2022-12-20T12:03:03;109.03;;;70.75;;
55268;SDS011;41131;42.990;21.954;2022-12-20T12:05:47;103.28;;;67.85;;
55268;SDS011;41131;42.990;21.954;2022-12-20T12:08:17;97.22;;;62.08;;
55268;SDS011;41131;42.990;21.954;2022-12-20T12:10:55;100.18;;;58.55;;
55268;SDS011;41131;42.990;21.954;2022-12-20T12:13:24;77.38;;;44.10;;
55268;SDS011;41131;42.990;21.954;2022-12-20T12:18:44;274.05;;;150.85;;
55268;SDS011;41131;42.990;21.954;2022-12-20T12:24:08;123.63;;;68.15;;
55268;SDS011;41131;42.990;21.954;2022-12-20T12:26:38;117.53;;;73.10;;
55268;SDS011;41131;42.990;21.954;2022-12-20T12:47:56;125.13;;;81.78;;
55268;SDS011;41131;42.990;21.954;2022-12-20T12:50:37;107.30;;;76.55;;
55268;SDS011;41131;42.990;21.954;2022-12-20T12:55:52;126.70;;;80.93;;
55268;SDS011;41131;42.990;21.954;2022-12-20T13:11:38;93.47;;;59.80;;
55268;SDS011;41131;42.990;21.954;2022-12-20T13:24:37;84.38;;;52.13;;
55268;SDS011;41131;42.990;21.954;2022-12-20T13:27:40;89.50;;;53.25;;
55268;SDS011;41131;42.990;21.954;2022-12-20T13:40:39;123.38;;;78.05;;
55268;SDS011;41131;42.990;21.954;2022-12-20T13:43:09;116.28;;;74.53;;
55268;SDS011;41131;42.990;21.954;2022-12-20T13:45:41;86.45;;;59.85;;
55268;SDS011;41131;42.990;21.954;2022-12-20T13:48:09;109.80;;;62.53;;
55268;SDS011;41131;42.990;21.954;2022-12-20T13:50:39;103.95;;;69.15;;
55268;SDS011;41131;42.990;21.954;2022-12-20T13:53:13;131.65;;;80.80;;
55268;SDS011;41131;42.990;21.954;2022-12-20T13:55:43;109.80;;;69.10;;
55268;SDS011;41131;42.990;21.954;2022-12-20T13:58:26;88.68;;;61.00;;
55268;SDS011;41131;42.990;21.954;2022-12-20T14:03:51;87.82;;;57.42;;
55268;SDS011;41131;42.990;21.954;2022-12-20T14:06:18;123.70;;;75.32;;
55268;SDS011;41131;42.990;21.954;2022-12-20T14:08:46;123.40;;;76.63;;
55268;SDS011;41131;42.990;21.954;2022-12-20T14:11:16;108.43;;;65.13;;
55268;SDS011;41131;42.990;21.954;2022-12-20T14:13:50;122.53;;;65.25;;
55268;SDS011;41131;42.990;21.954;2022-12-20T14:16:18;92.50;;;60.13;;
55268;SDS011;41131;42.990;21.954;2022-12-20T14:18:48;108.65;;;62.75;;
55268;SDS011;41131;42.990;21.954;2022-12-20T14:21:14;104.55;;;60.50;;
55268;SDS011;41131;42.990;21.954;2022-12-20T14:23:44;123.43;;;64.40;;
55268;SDS011;41131;42.990;21.954;2022-12-20T14:26:14;124.53;;;60.13;;
55268;SDS011;41131;42.990;21.954;2022-12-20T14:28:49;123.10;;;65.75;;
55268;SDS011;41131;42.990;21.954;2022-12-20T14:31:23;111.55;;;63.33;;
55268;SDS011;41131;42.990;21.954;2022-12-20T14:33:50;115.18;;;63.70;;
55268;SDS011;41131;42.990;21.954;2022-12-20T14:38:43;112.07;;;64.60;;
55268;SDS011;41131;42.990;21.954;2022-12-20T14:44:01;137.50;;;62.55;;
55268;SDS011;41131;42.990;21.954;2022-12-20T14:46:28;137.50;;;69.75;;
55268;SDS011;41131;42.990;21.954;2022-12-20T14:49:06;145.73;;;77.85;;
55268;SDS011;41131;42.990;21.954;2022-12-20T14:51:34;155.00;;;83.30;;
55268;SDS011;41131;42.990;21.954;2022-12-20T14:54:01;138.18;;;81.22;;
55268;SDS011;41131;42.990;21.954;2022-12-20T14:56:27;145.02;;;82.00;;
55268;SDS011;41131;42.990;21.954;2022-12-20T14:59:10;151.90;;;85.47;;
55268;SDS011;41131;42.990;21.954;2022-12-20T15:01:38;155.70;;;87.20;;
55268;SDS011;41131;42.990;21.954;2022-12-20T15:04:18;209.45;;;109.15;;
55268;SDS011;41131;42.990;21.954;2022-12-20T15:06:45;224.10;;;124.25;;
55268;SDS011;41131;42.990;21.954;2022-12-20T15:09:15;206.98;;;113.60;;
55268;SDS011;41131;42.990;21.954;2022-12-20T15:11:41;221.05;;;118.10;;
55268;SDS011;41131;42.990;21.954;2022-12-20T15:16:45;228.77;;;106.57;;
55268;SDS011;41131;42.990;21.954;2022-12-20T15:19:12;199.65;;;108.88;;
55268;SDS011;41131;42.990;21.954;2022-12-20T15:21:41;206.15;;;110.22;;
55268;SDS011;41131;42.990;21.954;2022-12-20T15:24:09;277.52;;;132.48;;
55268;SDS011;41131;42.990;21.954;2022-12-20T15:26:36;267.20;;;139.18;;
55268;SDS011;41131;42.990;21.954;2022-12-20T15:29:03;315.30;;;188.18;;
55268;SDS011;41131;42.990;21.954;2022-12-20T15:31:29;357.15;;;213.25;;
55268;SDS011;41131;42.990;21.954;2022-12-20T15:33:57;314.33;;;192.38;;
55268;SDS011;41131;42.990;21.954;2022-12-20T15:36:24;287.35;;;164.18;;
55268;SDS011;41131;42.990;21.954;2022-12-20T15:38:51;293.27;;;157.93;;
55268;SDS011;41131;42.990;21.954;2022-12-20T15:43:46;300.60;;;167.23;;
55268;SDS011;41131;42.990;21.954;2022-12-20T15:46:14;309.63;;;164.25;;
55268;SDS011;41131;42.990;21.954;2022-12-20T15:48:40;322.27;;;175.25;;
55268;SDS011;41131;42.990;21.954;2022-12-20T15:51:12;306.23;;;173.00;;
55268;SDS011;41131;42.990;21.954;2022-12-20T15:53:39;323.40;;;184.90;;
55268;SDS011;41131;42.990;21.954;2022-12-20T15:56:07;324.30;;;187.77;;
55268;SDS011;41131;42.990;21.954;2022-12-20T15:58:37;356.05;;;204.05;;
55268;SDS011;41131;42.990;21.954;2022-12-20T16:01:03;368.42;;;222.73;;
55268;SDS011;41131;42.990;21.954;2022-12-20T16:03:29;396.58;;;246.23;;
55268;SDS011;41131;42.990;21.954;2022-12-20T16:05:56;439.48;;;286.15;;
55268;SDS011;41131;42.990;21.954;2022-12-20T16:08:22;449.17;;;287.80;;
55268;SDS011;41131;42.990;21.954;2022-12-20T16:10:48;464.27;;;314.40;;
55268;SDS011;41131;42.990;21.954;2022-12-20T16:13:22;504.17;;;337.33;;
55268;SDS011;41131;42.990;21.954;2022-12-20T16:15:49;511.02;;;347.90;;
55268;SDS011;41131;42.990;21.954;2022-12-20T16:18:16;548.30;;;384.00;;
55268;SDS011;41131;42.990;21.954;2022-12-20T16:20:42;552.17;;;397.60;;
55268;SDS011;41131;42.990;21.954;2022-12-20T16:23:13;599.60;;;436.40;;
55268;SDS011;41131;42.990;21.954;2022-12-20T16:25:46;618.95;;;441.35;;
55268;SDS011;41131;42.990;21.954;2022-12-20T16:28:12;628.25;;;457.90;;
55268;SDS011;41131;42.990;21.954;2022-12-20T16:30:38;667.53;;;475.52;;
55268;SDS011;41131;42.990;21.954;2022-12-20T16:33:04;648.47;;;474.85;;
55268;SDS011;41131;42.990;21.954;2022-12-20T16:35:31;643.95;;;464.65;;
55268;SDS011;41131;42.990;21.954;2022-12-20T16:38:01;641.45;;;444.50;;